sensor_id;sensor_type;location;lat;lon;timestamp;pressure;altitude;pressure_sealevel;temperature;humidity
26978;BME280;56314;48.088;11.642;2022-12-13T00:00:17;94776.47;;;-8.51;78.86
26978;BME280;56314;48.088;11.642;2022-12-13T00:02:44;94778.22;;;-8.55;79.41
26978;BME280;56314;48.088;11.642;2022-12-13T00:05:10;94774.78;;;-8.52;79.36
26978;BME280;56314;48.088;11.642;2022-12-13T00:07:36;94769.00;;;-8.63;79.56
26978;BME280;56314;48.088;11.642;2022-12-13T00:10:03;94768.75;;;-8.46;79.95
26978;BME280;56314;48.088;11.642;2022-12-13T00:12:29;94769.69;;;-8.54;80.03
26978;BME280;56314;48.088;11.642;2022-12-13T00:14:54;94763.00;;;-8.61;80.03
26978;BME280;56314;48.088;11.642;2022-12-13T00:17:20;94759.47;;;-8.51;80.14
26978;BME280;56314;48.088;11.642;2022-12-13T00:19:46;94766.38;;;-8.59;79.71
26978;BME280;56314;48.088;11.642;2022-12-13T00:22:11;94765.56;;;-8.61;79.93
26978;BME280;56314;48.088;11.642;2022-12-13T00:24:37;94764.84;;;-8.72;79.81
26978;BME280;56314;48.088;11.642;2022-12-13T00:27:02;94766.56;;;-8.73;79.60
26978;BME280;56314;48.088;11.642;2022-12-13T00:29:28;94764.03;;;-8.74;80.28
26978;BME280;56314;48.088;11.642;2022-12-13T00:31:53;94768.28;;;-8.75;80.19
26978;BME280;56314;48.088;11.642;2022-12-13T00:34:19;94765.63;;;-8.66;80.26
26978;BME280;56314;48.088;11.642;2022-12-13T00:36:44;94763.16;;;-8.73;79.84
26978;BME280;56314;48.088;11.642;2022-12-13T00:39:11;94764.94;;;-8.78;80.26
26978;BME280;56314;48.088;11.642;2022-12-13T00:41:38;94760.81;;;-8.87;79.82
26978;BME280;56314;48.088;11.642;2022-12-13T00:44:04;94758.31;;;-8.92;80.03
26978;BME280;56314;48.088;11.642;2022-12-13T00:46:30;94760.09;;;-9.00;80.07
26978;BME280;56314;48.088;11.642;2022-12-13T00:48:58;94761.91;;;-9.10;79.86
26978;BME280;56314;48.088;11.642;2022-12-13T00:51:25;94763.69;;;-9.17;79.60
26978;BME280;56314;48.088;11.642;2022-12-13T00:53:51;94759.50;;;-9.24;80.19
26978;BME280;56314;48.088;11.642;2022-12-13T00:56:19;94758.53;;;-9.12;81.91
26978;BME280;56314;48.088;11.642;2022-12-13T00:58:47;94759.44;;;-9.18;80.61
26978;BME280;56314;48.088;11.642;2022-12-13T01:01:15;94756.28;;;-9.40;80.16
26978;BME280;56314;48.088;11.642;2022-12-13T01:03:41;94751.88;;;-9.22;80.48
26978;BME280;56314;48.088;11.642;2022-12-13T01:06:18;94756.09;;;-9.21;79.82
26978;BME280;56314;48.088;11.642;2022-12-13T01:08:44;94751.91;;;-9.29;79.44
26978;BME280;56314;48.088;11.642;2022-12-13T01:11:11;94751.03;;;-9.24;79.43
26978;BME280;56314;48.088;11.642;2022-12-13T01:13:37;94750.34;;;-9.42;78.84
26978;BME280;56314;48.088;11.642;2022-12-13T01:16:04;94747.84;;;-9.47;79.29
26978;BME280;56314;48.088;11.642;2022-12-13T01:18:30;94749.66;;;-9.55;80.18
26978;BME280;56314;48.088;11.642;2022-12-13T01:23:22;94750.53;;;-9.59;79.44
26978;BME280;56314;48.088;11.642;2022-12-13T01:25:48;94735.19;;;-9.48;79.96
26978;BME280;56314;48.088;11.642;2022-12-13T01:28:13;94734.31;;;-9.44;79.92
26978;BME280;56314;48.088;11.642;2022-12-13T01:30:39;94736.69;;;-9.30;79.94
26978;BME280;56314;48.088;11.642;2022-12-13T01:33:04;94731.75;;;-9.44;79.06
26978;BME280;56314;48.088;11.642;2022-12-13T01:35:33;94729.19;;;-9.43;79.96
26978;BME280;56314;48.088;11.642;2022-12-13T01:37:58;94722.19;;;-9.20;80.12
26978;BME280;56314;48.088;11.642;2022-12-13T01:40:23;94722.97;;;-9.17;79.73
26978;BME280;56314;48.088;11.642;2022-12-13T01:42:49;94725.53;;;-9.18;79.64
26978;BME280;56314;48.088;11.642;2022-12-13T01:45:27;94722.22;;;-9.23;79.97
26978;BME280;56314;48.088;11.642;2022-12-13T01:48:03;94717.03;;;-9.17;80.15
26978;BME280;56314;48.088;11.642;2022-12-13T01:50:34;94718.75;;;-9.18;80.23
26978;BME280;56314;48.088;11.642;2022-12-13T01:53:06;94712.81;;;-9.18;80.68
26978;BME280;56314;48.088;11.642;2022-12-13T01:55:33;94703.47;;;-9.15;80.68
26978;BME280;56314;48.088;11.642;2022-12-13T01:58:01;94705.94;;;-9.10;81.72
26978;BME280;56314;48.088;11.642;2022-12-13T02:00:27;94706.03;;;-9.18;82.01
26978;BME280;56314;48.088;11.642;2022-12-13T02:02:55;94702.69;;;-9.21;82.64
26978;BME280;56314;48.088;11.642;2022-12-13T02:08:12;94699.44;;;-9.33;83.67
26978;BME280;56314;48.088;11.642;2022-12-13T02:10:38;94701.06;;;-9.27;83.29
26978;BME280;56314;48.088;11.642;2022-12-13T02:13:04;94695.91;;;-9.24;83.75
26978;BME280;56314;48.088;11.642;2022-12-13T02:18:31;94701.09;;;-9.30;83.89
26978;BME280;56314;48.088;11.642;2022-12-13T02:21:17;94689.13;;;-9.22;84.25
26978;BME280;56314;48.088;11.642;2022-12-13T02:24:11;94672.22;;;-9.26;85.09
26978;BME280;56314;48.088;11.642;2022-12-13T02:32:54;94669.63;;;-9.23;85.29
26978;BME280;56314;48.088;11.642;2022-12-13T02:34:53;94666.13;;;-9.14;84.45
26978;BME280;56314;48.088;11.642;2022-12-13T02:37:29;94658.53;;;-9.17;83.92
26978;BME280;56314;48.088;11.642;2022-12-13T02:40:02;94667.09;;;-9.23;84.35
26978;BME280;56314;48.088;11.642;2022-12-13T02:42:36;94662.78;;;-9.18;84.74
26978;BME280;56314;48.088;11.642;2022-12-13T02:45:07;94657.78;;;-9.25;84.82
26978;BME280;56314;48.088;11.642;2022-12-13T02:47:36;94656.13;;;-9.26;84.82
26978;BME280;56314;48.088;11.642;2022-12-13T02:50:05;94656.16;;;-9.28;85.15
26978;BME280;56314;48.088;11.642;2022-12-13T02:52:31;94662.09;;;-9.31;85.29
26978;BME280;56314;48.088;11.642;2022-12-13T02:54:57;94648.41;;;-9.19;84.55
26978;BME280;56314;48.088;11.642;2022-12-13T02:57:32;94640.06;;;-9.30;84.89
26978;BME280;56314;48.088;11.642;2022-12-13T03:00:08;94638.38;;;-9.31;84.82
26978;BME280;56314;48.088;11.642;2022-12-13T03:08:46;94640.19;;;-9.41;84.56
26978;BME280;56314;48.088;11.642;2022-12-13T03:11:16;94633.47;;;-9.47;84.13
26978;BME280;56314;48.088;11.642;2022-12-13T03:13:54;94631.88;;;-9.54;82.98
26978;BME280;56314;48.088;11.642;2022-12-13T03:16:42;94626.81;;;-9.57;83.79
26978;BME280;56314;48.088;11.642;2022-12-13T03:19:10;94634.38;;;-9.51;83.90
26978;BME280;56314;48.088;11.642;2022-12-13T03:21:48;94636.00;;;-9.45;83.18
26978;BME280;56314;48.088;11.642;2022-12-13T03:24:19;94637.66;;;-9.43;82.87
26978;BME280;56314;48.088;11.642;2022-12-13T03:26:44;94637.66;;;-9.43;81.87
26978;BME280;56314;48.088;11.642;2022-12-13T03:29:11;94633.66;;;-9.62;81.93
26978;BME280;56314;48.088;11.642;2022-12-13T03:31:36;94631.91;;;-9.59;82.01
26978;BME280;56314;48.088;11.642;2022-12-13T03:34:01;94633.56;;;-9.56;81.49
26978;BME280;56314;48.088;11.642;2022-12-13T03:36:27;94630.16;;;-9.52;81.89
26978;BME280;56314;48.088;11.642;2022-12-13T03:38:53;94625.00;;;-9.49;81.08
26978;BME280;56314;48.088;11.642;2022-12-13T03:41:21;94632.00;;;-9.66;81.65
26978;BME280;56314;48.088;11.642;2022-12-13T03:43:47;94631.91;;;-9.60;82.62
26978;BME280;56314;48.088;11.642;2022-12-13T03:46:13;94639.41;;;-9.46;82.04
26978;BME280;56314;48.088;11.642;2022-12-13T03:48:38;94625.19;;;-9.63;82.11
26978;BME280;56314;48.088;11.642;2022-12-13T03:51:04;94620.78;;;-9.48;82.20
26978;BME280;56314;48.088;11.642;2022-12-13T03:53:30;94619.03;;;-9.45;82.91
26978;BME280;56314;48.088;11.642;2022-12-13T03:55:56;94612.25;;;-9.43;82.97
26978;BME280;56314;48.088;11.642;2022-12-13T03:58:21;94612.25;;;-9.43;82.14
26978;BME280;56314;48.088;11.642;2022-12-13T04:00:47;94614.03;;;-9.52;82.83
26978;BME280;56314;48.088;11.642;2022-12-13T04:03:13;94613.00;;;-9.36;83.10
26978;BME280;56314;48.088;11.642;2022-12-13T04:05:38;94613.91;;;-9.43;83.74
26978;BME280;56314;48.088;11.642;2022-12-13T04:08:04;94606.41;;;-9.52;83.78
26978;BME280;56314;48.088;11.642;2022-12-13T04:10:30;94603.94;;;-9.57;83.76
26978;BME280;56314;48.088;11.642;2022-12-13T04:12:55;94606.34;;;-9.48;83.25
26978;BME280;56314;48.088;11.642;2022-12-13T04:15:39;94607.25;;;-9.50;82.92
26978;BME280;56314;48.088;11.642;2022-12-13T04:18:14;94604.66;;;-9.49;83.89
26978;BME280;56314;48.088;11.642;2022-12-13T04:20:40;94610.66;;;-9.54;83.78
26978;BME280;56314;48.088;11.642;2022-12-13T04:23:06;94607.13;;;-9.39;84.06
26978;BME280;56314;48.088;11.642;2022-12-13T04:25:31;94609.69;;;-9.43;83.18
26978;BME280;56314;48.088;11.642;2022-12-13T04:27:56;94605.59;;;-9.53;83.50
26978;BME280;56314;48.088;11.642;2022-12-13T04:30:22;94596.25;;;-9.52;83.05
26978;BME280;56314;48.088;11.642;2022-12-13T04:32:47;94602.91;;;-9.42;83.75
26978;BME280;56314;48.088;11.642;2022-12-13T04:35:12;94602.94;;;-9.44;83.12
26978;BME280;56314;48.088;11.642;2022-12-13T04:37:38;94604.63;;;-9.44;82.36
26978;BME280;56314;48.088;11.642;2022-12-13T04:40:03;94603.84;;;-9.49;82.60
26978;BME280;56314;48.088;11.642;2022-12-13T04:42:29;94600.44;;;-9.50;82.56
26978;BME280;56314;48.088;11.642;2022-12-13T04:44:55;94603.03;;;-9.54;82.60
26978;BME280;56314;48.088;11.642;2022-12-13T04:47:21;94602.97;;;-9.50;82.29
26978;BME280;56314;48.088;11.642;2022-12-13T04:49:46;94593.66;;;-9.46;82.02
26978;BME280;56314;48.088;11.642;2022-12-13T04:52:12;94587.75;;;-9.51;81.71
26978;BME280;56314;48.088;11.642;2022-12-13T04:54:37;94592.81;;;-9.50;81.47
26978;BME280;56314;48.088;11.642;2022-12-13T04:57:08;94592.88;;;-9.53;81.32
26978;BME280;56314;48.088;11.642;2022-12-13T04:59:35;94594.50;;;-9.47;81.53
26978;BME280;56314;48.088;11.642;2022-12-13T05:02:02;94592.81;;;-9.50;81.33
26978;BME280;56314;48.088;11.642;2022-12-13T05:04:28;94587.75;;;-9.51;81.16
26978;BME280;56314;48.088;11.642;2022-12-13T05:06:54;94591.16;;;-9.52;81.71
26978;BME280;56314;48.088;11.642;2022-12-13T05:09:19;94589.56;;;-9.61;80.97
26978;BME280;56314;48.088;11.642;2022-12-13T05:11:44;94582.06;;;-9.69;80.87
26978;BME280;56314;48.088;11.642;2022-12-13T05:14:10;94576.97;;;-9.69;81.36
26978;BME280;56314;48.088;11.642;2022-12-13T05:16:35;94580.31;;;-9.67;81.75
26978;BME280;56314;48.088;11.642;2022-12-13T05:19:00;94580.28;;;-9.64;81.65
26978;BME280;56314;48.088;11.642;2022-12-13T05:21:26;94577.78;;;-9.67;81.54
26978;BME280;56314;48.088;11.642;2022-12-13T05:23:51;94577.69;;;-9.57;81.56
26978;BME280;56314;48.088;11.642;2022-12-13T05:26:16;94571.00;;;-9.66;81.48
26978;BME280;56314;48.088;11.642;2022-12-13T05:28:42;94576.94;;;-9.67;81.70
26978;BME280;56314;48.088;11.642;2022-12-13T05:31:09;94573.56;;;-9.68;81.68
26978;BME280;56314;48.088;11.642;2022-12-13T05:33:35;94571.13;;;-9.76;81.34
26978;BME280;56314;48.088;11.642;2022-12-13T05:36:01;94578.59;;;-9.65;81.72
26978;BME280;56314;48.088;11.642;2022-12-13T05:38:27;94582.00;;;-9.66;81.69
26978;BME280;56314;48.088;11.642;2022-12-13T05:40:53;94575.25;;;-9.68;81.62
26978;BME280;56314;48.088;11.642;2022-12-13T05:43:18;94576.09;;;-9.68;81.95
26978;BME280;56314;48.088;11.642;2022-12-13T05:45:44;94567.53;;;-9.57;81.81
26978;BME280;56314;48.088;11.642;2022-12-13T05:48:09;94564.00;;;-9.49;81.82
26978;BME280;56314;48.088;11.642;2022-12-13T05:50:35;94571.72;;;-9.55;81.33
26978;BME280;56314;48.088;11.642;2022-12-13T05:53:03;94569.22;;;-9.56;81.77
26978;BME280;56314;48.088;11.642;2022-12-13T05:55:29;94576.06;;;-9.63;81.42
26978;BME280;56314;48.088;11.642;2022-12-13T05:57:54;94576.88;;;-9.60;81.26
26978;BME280;56314;48.088;11.642;2022-12-13T06:00:19;94579.41;;;-9.61;80.97
26978;BME280;56314;48.088;11.642;2022-12-13T06:02:45;94575.22;;;-9.62;81.20
26978;BME280;56314;48.088;11.642;2022-12-13T06:05:10;94574.44;;;-9.70;81.52
26978;BME280;56314;48.088;11.642;2022-12-13T06:07:36;94572.66;;;-9.62;81.07
26978;BME280;56314;48.088;11.642;2022-12-13T06:10:03;94571.00;;;-9.66;81.50
26978;BME280;56314;48.088;11.642;2022-12-13T06:12:29;94564.31;;;-9.72;81.35
26978;BME280;56314;48.088;11.642;2022-12-13T06:14:54;94570.22;;;-9.71;81.82
26978;BME280;56314;48.088;11.642;2022-12-13T06:17:20;94570.97;;;-9.63;81.29
26978;BME280;56314;48.088;11.642;2022-12-13T06:19:51;94574.41;;;-9.67;80.87
26978;BME280;56314;48.088;11.642;2022-12-13T06:22:17;94577.69;;;-9.59;80.76
26978;BME280;56314;48.088;11.642;2022-12-13T06:24:42;94570.09;;;-9.61;80.59
26978;BME280;56314;48.088;11.642;2022-12-13T06:27:08;94567.53;;;-9.59;80.18
26978;BME280;56314;48.088;11.642;2022-12-13T06:29:33;94572.75;;;-9.70;79.77
26978;BME280;56314;48.088;11.642;2022-12-13T06:32:00;94574.50;;;-9.75;79.74
26978;BME280;56314;48.088;11.642;2022-12-13T06:34:26;94571.31;;;-9.93;80.83
26978;BME280;56314;48.088;11.642;2022-12-13T06:36:52;94571.34;;;-9.96;81.50
26978;BME280;56314;48.088;11.642;2022-12-13T06:39:17;94582.31;;;-9.92;81.68
26978;BME280;56314;48.088;11.642;2022-12-13T06:41:43;94585.66;;;-9.87;81.52
26978;BME280;56314;48.088;11.642;2022-12-13T06:44:08;94586.47;;;-9.86;81.60
26978;BME280;56314;48.088;11.642;2022-12-13T06:46:34;94589.75;;;-9.75;81.94
26978;BME280;56314;48.088;11.642;2022-12-13T06:48:59;94587.94;;;-9.67;81.77
26978;BME280;56314;48.088;11.642;2022-12-13T06:51:25;94592.25;;;-9.74;81.75
26978;BME280;56314;48.088;11.642;2022-12-13T06:53:51;94580.50;;;-9.84;81.70
26978;BME280;56314;48.088;11.642;2022-12-13T06:56:16;94592.25;;;-9.72;81.13
26978;BME280;56314;48.088;11.642;2022-12-13T06:58:42;94594.03;;;-9.82;80.83
26978;BME280;56314;48.088;11.642;2022-12-13T07:01:10;94593.13;;;-9.73;80.68
26978;BME280;56314;48.088;11.642;2022-12-13T07:03:35;94591.34;;;-9.68;80.86
26978;BME280;56314;48.088;11.642;2022-12-13T07:06:17;94594.78;;;-9.74;81.09
26978;BME280;56314;48.088;11.642;2022-12-13T07:08:47;94604.09;;;-9.72;80.24
26978;BME280;56314;48.088;11.642;2022-12-13T07:11:14;94605.06;;;-9.81;80.18
26978;BME280;56314;48.088;11.642;2022-12-13T07:13:43;94604.19;;;-9.79;79.53
26978;BME280;56314;48.088;11.642;2022-12-13T07:16:09;94598.31;;;-9.82;79.32
26978;BME280;56314;48.088;11.642;2022-12-13T07:18:38;94598.41;;;-9.93;79.58
26978;BME280;56314;48.088;11.642;2022-12-13T07:21:08;94597.63;;;-9.98;79.97
26978;BME280;56314;48.088;11.642;2022-12-13T07:23:40;94599.97;;;-9.83;79.93
26978;BME280;56314;48.088;11.642;2022-12-13T07:26:07;94603.38;;;-9.84;79.56
26978;BME280;56314;48.088;11.642;2022-12-13T07:28:35;94610.19;;;-9.84;79.90
26978;BME280;56314;48.088;11.642;2022-12-13T07:31:03;94610.19;;;-9.84;80.24
26978;BME280;56314;48.088;11.642;2022-12-13T07:33:28;94610.94;;;-9.79;80.31
26978;BME280;56314;48.088;11.642;2022-12-13T07:36:02;94604.94;;;-9.70;80.19
26978;BME280;56314;48.088;11.642;2022-12-13T07:38:28;94598.72;;;-9.46;79.35
26978;BME280;56314;48.088;11.642;2022-12-13T07:40:56;94600.44;;;-9.48;78.45
26978;BME280;56314;48.088;11.642;2022-12-13T07:43:25;94601.25;;;-9.45;77.81
26978;BME280;56314;48.088;11.642;2022-12-13T07:45:51;94599.72;;;-9.56;78.03
26978;BME280;56314;48.088;11.642;2022-12-13T07:48:17;94597.19;;;-9.61;79.26
26978;BME280;56314;48.088;11.642;2022-12-13T07:50:43;94596.97;;;-9.43;79.09
26978;BME280;56314;48.088;11.642;2022-12-13T07:53:08;94605.59;;;-9.53;78.31
26978;BME280;56314;48.088;11.642;2022-12-13T07:55:35;94602.19;;;-9.53;78.30
26978;BME280;56314;48.088;11.642;2022-12-13T08:00:32;94605.59;;;-9.54;78.96
26978;BME280;56314;48.088;11.642;2022-12-13T08:02:59;94605.38;;;-9.36;78.63
26978;BME280;56314;48.088;11.642;2022-12-13T08:05:24;94602.47;;;-9.09;78.68
26978;BME280;56314;48.088;11.642;2022-12-13T08:07:50;94601.47;;;-8.99;77.96
26978;BME280;56314;48.088;11.642;2022-12-13T08:10:15;94606.41;;;-8.87;77.46
26978;BME280;56314;48.088;11.642;2022-12-13T08:12:46;94605.47;;;-8.81;76.14
26978;BME280;56314;48.088;11.642;2022-12-13T08:15:17;94599.59;;;-8.85;75.80
26978;BME280;56314;48.088;11.642;2022-12-13T08:17:43;94605.47;;;-8.79;76.48
26978;BME280;56314;48.088;11.642;2022-12-13T08:20:08;94601.16;;;-8.77;76.29
26978;BME280;56314;48.088;11.642;2022-12-13T08:22:34;94588.22;;;-8.62;76.09
26978;BME280;56314;48.088;11.642;2022-12-13T08:24:59;94588.41;;;-8.73;76.17
26978;BME280;56314;48.088;11.642;2022-12-13T08:27:25;94577.88;;;-8.51;76.00
26978;BME280;56314;48.088;11.642;2022-12-13T08:29:51;94571.19;;;-8.57;75.60
26978;BME280;56314;48.088;11.642;2022-12-13T08:32:17;94582.09;;;-8.52;75.02
26978;BME280;56314;48.088;11.642;2022-12-13T08:34:42;94586.03;;;-8.32;74.86
26978;BME280;56314;48.088;11.642;2022-12-13T08:37:07;94586.13;;;-8.40;74.90
26978;BME280;56314;48.088;11.642;2022-12-13T08:39:35;94585.31;;;-8.42;74.38
26978;BME280;56314;48.088;11.642;2022-12-13T08:42:02;94588.78;;;-8.46;75.35
26978;BME280;56314;48.088;11.642;2022-12-13T08:44:28;94591.19;;;-8.37;74.91
26978;BME280;56314;48.088;11.642;2022-12-13T08:46:53;94591.78;;;-8.22;75.19
26978;BME280;56314;48.088;11.642;2022-12-13T08:49:20;94605.16;;;-8.09;74.95
26978;BME280;56314;48.088;11.642;2022-12-13T08:51:45;94599.59;;;-7.83;73.84
26978;BME280;56314;48.088;11.642;2022-12-13T08:54:10;94601.56;;;-7.52;73.27
26978;BME280;56314;48.088;11.642;2022-12-13T08:56:36;94594.34;;;-7.31;72.78
26978;BME280;56314;48.088;11.642;2022-12-13T08:59:01;94601.50;;;-7.08;71.61
26978;BME280;56314;48.088;11.642;2022-12-13T09:01:26;94600.34;;;-6.93;70.02
26978;BME280;56314;48.088;11.642;2022-12-13T09:03:54;94603.78;;;-6.56;69.57
26978;BME280;56314;48.088;11.642;2022-12-13T09:06:19;94599.72;;;-6.29;68.19
26978;BME280;56314;48.088;11.642;2022-12-13T09:08:45;94602.94;;;-5.89;67.59
26978;BME280;56314;48.088;11.642;2022-12-13T09:11:10;94594.75;;;-5.36;65.68
26978;BME280;56314;48.088;11.642;2022-12-13T09:13:37;94597.00;;;-4.95;64.11
26978;BME280;56314;48.088;11.642;2022-12-13T09:16:05;94594.22;;;-4.59;62.77
26978;BME280;56314;48.088;11.642;2022-12-13T09:18:30;94576.41;;;-4.10;60.83
26978;BME280;56314;48.088;11.642;2022-12-13T09:20:56;94580.34;;;-3.49;58.63
26978;BME280;56314;48.088;11.642;2022-12-13T09:23:21;94572.19;;;-2.89;56.19
26978;BME280;56314;48.088;11.642;2022-12-13T09:25:57;94569.75;;;-2.70;55.02
26978;BME280;56314;48.088;11.642;2022-12-13T09:28:22;94578.00;;;-2.84;54.77
26978;BME280;56314;48.088;11.642;2022-12-13T09:30:48;94571.59;;;-2.29;54.94
26978;BME280;56314;48.088;11.642;2022-12-13T09:33:14;94572.38;;;-1.86;52.71
26978;BME280;56314;48.088;11.642;2022-12-13T09:35:40;94569.34;;;-1.54;50.94
26978;BME280;56314;48.088;11.642;2022-12-13T09:38:05;94562.78;;;-1.41;51.46
26978;BME280;56314;48.088;11.642;2022-12-13T09:40:32;94566.03;;;-1.37;51.18
26978;BME280;56314;48.088;11.642;2022-12-13T09:42:59;94566.94;;;-1.38;49.79
26978;BME280;56314;48.088;11.642;2022-12-13T09:45:26;94566.00;;;-1.35;50.69
26978;BME280;56314;48.088;11.642;2022-12-13T09:47:53;94560.56;;;-1.69;50.74
26978;BME280;56314;48.088;11.642;2022-12-13T09:50:33;94554.25;;;-1.82;50.87
26978;BME280;56314;48.088;11.642;2022-12-13T09:53:00;94554.50;;;-1.28;51.48
26978;BME280;56314;48.088;11.642;2022-12-13T09:55:31;94553.84;;;-0.94;49.27
26978;BME280;56314;48.088;11.642;2022-12-13T09:57:59;94552.16;;;-0.75;49.44
26978;BME280;56314;48.088;11.642;2022-12-13T10:00:33;94546.81;;;-0.90;48.50
26978;BME280;56314;48.088;11.642;2022-12-13T10:02:59;94544.88;;;-1.04;48.79
26978;BME280;56314;48.088;11.642;2022-12-13T10:05:33;94543.94;;;-1.62;50.05
26978;BME280;56314;48.088;11.642;2022-12-13T10:08:14;94546.66;;;-1.86;52.17
26978;BME280;56314;48.088;11.642;2022-12-13T10:10:41;94537.72;;;-1.77;52.55
26978;BME280;56314;48.088;11.642;2022-12-13T10:15:35;94541.84;;;-1.73;51.97
26978;BME280;56314;48.088;11.642;2022-12-13T10:18:03;94537.56;;;-1.53;52.03
26978;BME280;56314;48.088;11.642;2022-12-13T10:20:30;94545.38;;;-1.96;52.64
26978;BME280;56314;48.088;11.642;2022-12-13T10:22:55;94545.19;;;-2.12;53.12
26978;BME280;56314;48.088;11.642;2022-12-13T10:25:47;94536.66;;;-2.35;53.70
26978;BME280;56314;48.088;11.642;2022-12-13T10:28:15;94532.19;;;-2.09;53.87
26978;BME280;56314;48.088;11.642;2022-12-13T10:30:42;94534.50;;;-1.61;53.44
26978;BME280;56314;48.088;11.642;2022-12-13T10:33:19;94535.91;;;-1.75;53.93
26978;BME280;56314;48.088;11.642;2022-12-13T10:38:44;94525.88;;;-1.60;52.24
26978;BME280;56314;48.088;11.642;2022-12-13T10:41:37;94518.75;;;-1.55;53.07
26978;BME280;56314;48.088;11.642;2022-12-13T10:44:22;94519.50;;;-1.72;51.77
26978;BME280;56314;48.088;11.642;2022-12-13T10:47:01;94514.53;;;-2.39;53.37
26978;BME280;56314;48.088;11.642;2022-12-13T10:49:34;94514.22;;;-2.31;54.12
26978;BME280;56314;48.088;11.642;2022-12-13T10:52:02;94508.25;;;-2.32;55.35
26978;BME280;56314;48.088;11.642;2022-12-13T10:54:36;94512.06;;;-1.99;54.90
26978;BME280;56314;48.088;11.642;2022-12-13T10:57:03;94518.75;;;-1.95;54.02
26978;BME280;56314;48.088;11.642;2022-12-13T10:59:36;94520.16;;;-2.08;55.22
26978;BME280;56314;48.088;11.642;2022-12-13T11:04:50;94503.94;;;-1.69;54.11
26978;BME280;56314;48.088;11.642;2022-12-13T11:07:32;94507.66;;;-1.97;52.63
26978;BME280;56314;48.088;11.642;2022-12-13T11:10:16;94510.94;;;-2.35;55.13
26978;BME280;56314;48.088;11.642;2022-12-13T11:12:42;94509.97;;;-2.75;55.17
26978;BME280;56314;48.088;11.642;2022-12-13T11:15:16;94504.00;;;-2.53;55.52
26978;BME280;56314;48.088;11.642;2022-12-13T11:17:52;94500.50;;;-2.52;57.11
26978;BME280;56314;48.088;11.642;2022-12-13T11:20:22;94498.28;;;-2.39;56.48
26978;BME280;56314;48.088;11.642;2022-12-13T11:22:49;94507.56;;;-2.35;56.35
26978;BME280;56314;48.088;11.642;2022-12-13T11:25:26;94504.31;;;-2.40;55.78
26978;BME280;56314;48.088;11.642;2022-12-13T11:30:37;94497.19;;;-2.54;55.87
26978;BME280;56314;48.088;11.642;2022-12-13T11:33:25;94498.56;;;-2.90;56.75
26978;BME280;56314;48.088;11.642;2022-12-13T11:41:38;94477.00;;;-2.22;56.52
26978;BME280;56314;48.088;11.642;2022-12-13T11:44:15;94473.47;;;-2.20;55.42
26978;BME280;56314;48.088;11.642;2022-12-13T11:46:51;94479.19;;;-2.13;57.61
26978;BME280;56314;48.088;11.642;2022-12-13T11:49:29;94484.25;;;-2.53;56.66
26978;BME280;56314;48.088;11.642;2022-12-13T11:52:18;94480.47;;;-2.65;57.30
26978;BME280;56314;48.088;11.642;2022-12-13T11:54:57;94482.72;;;-2.79;57.42
26978;BME280;56314;48.088;11.642;2022-12-13T11:57:38;94477.00;;;-3.08;58.83
26978;BME280;56314;48.088;11.642;2022-12-13T12:00:22;94482.56;;;-3.19;61.88
26978;BME280;56314;48.088;11.642;2022-12-13T12:02:54;94480.16;;;-3.47;61.86
26978;BME280;56314;48.088;11.642;2022-12-13T12:05:27;94478.63;;;-3.75;61.44
26978;BME280;56314;48.088;11.642;2022-12-13T12:07:59;94481.22;;;-3.77;61.38
26978;BME280;56314;48.088;11.642;2022-12-13T12:10:35;94486.75;;;-3.88;62.15
26978;BME280;56314;48.088;11.642;2022-12-13T12:15:37;94477.56;;;-3.93;62.66
26978;BME280;56314;48.088;11.642;2022-12-13T12:18:14;94475.88;;;-3.94;62.79
26978;BME280;56314;48.088;11.642;2022-12-13T12:20:53;94470.53;;;-4.13;63.65
26978;BME280;56314;48.088;11.642;2022-12-13T12:24:11;94473.19;;;-4.15;63.80
26978;BME280;56314;48.088;11.642;2022-12-13T12:26:16;94471.53;;;-4.18;63.82
26978;BME280;56314;48.088;11.642;2022-12-13T12:29:05;94469.56;;;-4.35;62.82
26978;BME280;56314;48.088;11.642;2022-12-13T12:37:23;94464.38;;;-4.08;64.46
26978;BME280;56314;48.088;11.642;2022-12-13T12:42:58;94464.75;;;-3.95;63.37
26978;BME280;56314;48.088;11.642;2022-12-13T12:45:40;94462.03;;;-3.90;64.57
26978;BME280;56314;48.088;11.642;2022-12-13T12:53:41;94459.56;;;-3.22;64.08
26978;BME280;56314;48.088;11.642;2022-12-13T12:58:54;94467.63;;;-3.31;63.77
26978;BME280;56314;48.088;11.642;2022-12-13T13:04:55;94464.38;;;-3.36;63.17
26978;BME280;56314;48.088;11.642;2022-12-13T13:07:27;94474.91;;;-3.44;63.79
26978;BME280;56314;48.088;11.642;2022-12-13T13:09:54;94468.53;;;-3.34;63.83
26978;BME280;56314;48.088;11.642;2022-12-13T13:12:21;94471.81;;;-3.30;63.56
26978;BME280;56314;48.088;11.642;2022-12-13T13:14:47;94477.22;;;-3.36;63.21
26978;BME280;56314;48.088;11.642;2022-12-13T13:19:46;94485.72;;;-3.58;64.20
26978;BME280;56314;48.088;11.642;2022-12-13T13:25:21;94484.69;;;-3.54;63.19
26978;BME280;56314;48.088;11.642;2022-12-13T13:28:10;94483.22;;;-3.37;63.87
26978;BME280;56314;48.088;11.642;2022-12-13T13:31:04;94487.66;;;-3.41;63.33
26978;BME280;56314;48.088;11.642;2022-12-13T13:33:47;94494.63;;;-3.45;63.93
26978;BME280;56314;48.088;11.642;2022-12-13T13:39:03;94496.75;;;-3.56;63.48
26978;BME280;56314;48.088;11.642;2022-12-13T14:09:52;94511.13;;;-4.52;65.05
26978;BME280;56314;48.088;11.642;2022-12-13T14:18:09;94523.69;;;-5.28;66.87
26978;BME280;56314;48.088;11.642;2022-12-13T14:26:22;94513.31;;;-5.23;66.52
26978;BME280;56314;48.088;11.642;2022-12-13T14:29:01;94522.94;;;-5.31;66.23
26978;BME280;56314;48.088;11.642;2022-12-13T14:32:01;94519.34;;;-5.54;66.31
26978;BME280;56314;48.088;11.642;2022-12-13T14:34:23;94522.34;;;-5.71;67.00
26978;BME280;56314;48.088;11.642;2022-12-13T14:37:01;94516.47;;;-5.75;67.46
26978;BME280;56314;48.088;11.642;2022-12-13T14:39:28;94515.13;;;-5.87;68.27
26978;BME280;56314;48.088;11.642;2022-12-13T14:41:57;94515.94;;;-5.86;68.21
26978;BME280;56314;48.088;11.642;2022-12-13T14:44:26;94512.34;;;-5.79;68.39
26978;BME280;56314;48.088;11.642;2022-12-13T14:46:57;94511.63;;;-5.84;68.94
26978;BME280;56314;48.088;11.642;2022-12-13T14:49:25;94526.91;;;-5.81;69.70